sensor_id;sensor_type;location;lat;lon;timestamp;temperature;humidity
43673;DHT22;41723;49.326;8.430;2023-01-15T00:00:41;10.30;99.90
43673;DHT22;41723;49.326;8.430;2023-01-15T00:03:07;10.40;99.90
43673;DHT22;41723;49.326;8.430;2023-01-15T00:05:35;10.40;99.90
43673;DHT22;41723;49.326;8.430;2023-01-15T00:08:01;10.40;99.90
43673;DHT22;41723;49.326;8.430;2023-01-15T00:10:27;10.40;99.90
43673;DHT22;41723;49.326;8.430;2023-01-15T00:12:52;10.40;99.90
43673;DHT22;41723;49.326;8.430;2023-01-15T00:15:18;10.40;99.90
43673;DHT22;41723;49.326;8.430;2023-01-15T00:17:43;10.40;99.90
43673;DHT22;41723;49.326;8.430;2023-01-15T00:20:09;10.50;99.90
43673;DHT22;41723;49.326;8.430;2023-01-15T00:22:35;10.40;99.90
43673;DHT22;41723;49.326;8.430;2023-01-15T00:25:00;10.30;99.90
43673;DHT22;41723;49.326;8.430;2023-01-15T00:27:45;10.40;99.90
43673;DHT22;41723;49.326;8.430;2023-01-15T00:30:12;10.40;99.90
43673;DHT22;41723;49.326;8.430;2023-01-15T00:32:39;10.40;99.90
43673;DHT22;41723;49.326;8.430;2023-01-15T00:35:04;10.40;99.90
43673;DHT22;41723;49.326;8.430;2023-01-15T00:37:30;10.30;99.90
43673;DHT22;41723;49.326;8.430;2023-01-15T00:39:56;10.40;99.90
43673;DHT22;41723;49.326;8.430;2023-01-15T00:42:21;10.40;99.90
43673;DHT22;41723;49.326;8.430;2023-01-15T00:44:47;10.40;99.90
43673;DHT22;41723;49.326;8.430;2023-01-15T00:47:12;10.40;99.90
43673;DHT22;41723;49.326;8.430;2023-01-15T00:49:41;10.40;99.90
43673;DHT22;41723;49.326;8.430;2023-01-15T00:52:07;10.40;99.90
43673;DHT22;41723;49.326;8.430;2023-01-15T00:54:33;10.40;99.90
43673;DHT22;41723;49.326;8.430;2023-01-15T00:56:58;10.40;99.90
43673;DHT22;41723;49.326;8.430;2023-01-15T00:59:24;10.40;99.90
43673;DHT22;41723;49.326;8.430;2023-01-15T01:01:50;10.40;99.90
43673;DHT22;41723;49.326;8.430;2023-01-15T01:04:16;10.40;99.90
43673;DHT22;41723;49.326;8.430;2023-01-15T01:06:41;10.40;99.90
43673;DHT22;41723;49.326;8.430;2023-01-15T01:09:08;10.40;99.90
43673;DHT22;41723;49.326;8.430;2023-01-15T01:11:34;10.40;99.90
43673;DHT22;41723;49.326;8.430;2023-01-15T01:14:01;10.50;99.90
43673;DHT22;41723;49.326;8.430;2023-01-15T01:16:37;10.40;99.90
43673;DHT22;41723;49.326;8.430;2023-01-15T01:19:04;10.40;99.90
43673;DHT22;41723;49.326;8.430;2023-01-15T01:21:30;10.40;99.90
43673;DHT22;41723;49.326;8.430;2023-01-15T01:23:58;10.40;99.90
43673;DHT22;41723;49.326;8.430;2023-01-15T01:26:23;10.50;99.90
43673;DHT22;41723;49.326;8.430;2023-01-15T01:28:50;10.50;99.90
43673;DHT22;41723;49.326;8.430;2023-01-15T01:31:16;10.40;99.90
43673;DHT22;41723;49.326;8.430;2023-01-15T01:33:42;10.40;99.90
43673;DHT22;41723;49.326;8.430;2023-01-15T01:36:07;10.50;99.90
43673;DHT22;41723;49.326;8.430;2023-01-15T01:38:33;10.40;99.90
43673;DHT22;41723;49.326;8.430;2023-01-15T01:40:59;10.50;99.90
43673;DHT22;41723;49.326;8.430;2023-01-15T01:43:27;10.50;99.90
43673;DHT22;41723;49.326;8.430;2023-01-15T01:45:52;10.40;99.90
43673;DHT22;41723;49.326;8.430;2023-01-15T01:48:19;10.50;99.90
43673;DHT22;41723;49.326;8.430;2023-01-15T01:50:46;10.40;99.90
43673;DHT22;41723;49.326;8.430;2023-01-15T01:53:13;10.50;99.90
43673;DHT22;41723;49.326;8.430;2023-01-15T01:55:41;10.50;99.90
43673;DHT22;41723;49.326;8.430;2023-01-15T01:58:07;10.50;99.90
43673;DHT22;41723;49.326;8.430;2023-01-15T02:00:34;10.50;99.90
43673;DHT22;41723;49.326;8.430;2023-01-15T02:03:00;10.50;99.90
43673;DHT22;41723;49.326;8.430;2023-01-15T02:05:28;10.40;99.90
43673;DHT22;41723;49.326;8.430;2023-01-15T02:07:54;10.50;99.90
43673;DHT22;41723;49.326;8.430;2023-01-15T02:10:20;10.50;99.90
43673;DHT22;41723;49.326;8.430;2023-01-15T02:12:48;10.50;99.90
43673;DHT22;41723;49.326;8.430;2023-01-15T02:15:23;10.50;99.90
43673;DHT22;41723;49.326;8.430;2023-01-15T02:18:08;10.50;99.90
43673;DHT22;41723;49.326;8.430;2023-01-15T02:20:58;10.50;99.90
43673;DHT22;41723;49.326;8.430;2023-01-15T02:26:23;10.50;99.90
43673;DHT22;41723;49.326;8.430;2023-01-15T02:28:51;10.50;99.90
43673;DHT22;41723;49.326;8.430;2023-01-15T02:36:30;10.50;99.90
43673;DHT22;41723;49.326;8.430;2023-01-15T02:39:01;10.60;99.90
43673;DHT22;41723;49.326;8.430;2023-01-15T02:41:29;10.60;99.90
43673;DHT22;41723;49.326;8.430;2023-01-15T02:43:56;10.50;99.90
43673;DHT22;41723;49.326;8.430;2023-01-15T02:46:26;10.60;99.90
43673;DHT22;41723;49.326;8.430;2023-01-15T02:48:53;10.60;99.90
43673;DHT22;41723;49.326;8.430;2023-01-15T02:51:21;10.60;99.90
43673;DHT22;41723;49.326;8.430;2023-01-15T02:53:48;10.60;99.90
43673;DHT22;41723;49.326;8.430;2023-01-15T02:56:18;10.60;99.90
43673;DHT22;41723;49.326;8.430;2023-01-15T02:58:50;10.60;99.90
43673;DHT22;41723;49.326;8.430;2023-01-15T03:01:19;10.60;99.90
43673;DHT22;41723;49.326;8.430;2023-01-15T03:03:54;10.60;99.90
43673;DHT22;41723;49.326;8.430;2023-01-15T03:06:40;10.60;99.90
43673;DHT22;41723;49.326;8.430;2023-01-15T03:09:08;10.60;99.90
43673;DHT22;41723;49.326;8.430;2023-01-15T03:11:39;10.60;99.90
43673;DHT22;41723;49.326;8.430;2023-01-15T03:14:13;10.60;99.90
43673;DHT22;41723;49.326;8.430;2023-01-15T03:16:43;10.60;99.90
43673;DHT22;41723;49.326;8.430;2023-01-15T03:24:11;10.60;99.90
43673;DHT22;41723;49.326;8.430;2023-01-15T03:26:37;10.60;99.90
43673;DHT22;41723;49.326;8.430;2023-01-15T03:29:03;10.50;99.90
43673;DHT22;41723;49.326;8.430;2023-01-15T03:31:30;10.50;99.90
43673;DHT22;41723;49.326;8.430;2023-01-15T03:33:57;10.40;99.90
43673;DHT22;41723;49.326;8.430;2023-01-15T03:36:23;10.40;99.90
43673;DHT22;41723;49.326;8.430;2023-01-15T03:38:49;10.40;99.90
43673;DHT22;41723;49.326;8.430;2023-01-15T03:54:33;9.60;99.90
43673;DHT22;41723;49.326;8.430;2023-01-15T03:57:06;9.50;99.90
43673;DHT22;41723;49.326;8.430;2023-01-15T03:59:34;9.50;99.90
43673;DHT22;41723;49.326;8.430;2023-01-15T04:02:04;9.50;99.90
43673;DHT22;41723;49.326;8.430;2023-01-15T04:04:31;9.50;99.90
43673;DHT22;41723;49.326;8.430;2023-01-15T04:06:59;9.50;99.90
43673;DHT22;41723;49.326;8.430;2023-01-15T04:09:26;9.60;99.90
43673;DHT22;41723;49.326;8.430;2023-01-15T04:11:58;9.60;99.90
43673;DHT22;41723;49.326;8.430;2023-01-15T04:14:25;9.60;99.90
43673;DHT22;41723;49.326;8.430;2023-01-15T04:16:53;9.50;99.90
43673;DHT22;41723;49.326;8.430;2023-01-15T04:19:22;9.40;99.90
43673;DHT22;41723;49.326;8.430;2023-01-15T04:21:57;9.30;99.90
43673;DHT22;41723;49.326;8.430;2023-01-15T04:24:22;9.30;99.90
43673;DHT22;41723;49.326;8.430;2023-01-15T04:26:49;9.20;99.90
43673;DHT22;41723;49.326;8.430;2023-01-15T04:29:14;9.10;99.90
43673;DHT22;41723;49.326;8.430;2023-01-15T04:31:40;9.10;99.90
43673;DHT22;41723;49.326;8.430;2023-01-15T04:34:06;9.10;99.90
43673;DHT22;41723;49.326;8.430;2023-01-15T04:36:31;9.10;99.90
43673;DHT22;41723;49.326;8.430;2023-01-15T04:39:00;9.10;99.90
43673;DHT22;41723;49.326;8.430;2023-01-15T04:41:26;9.10;99.90
43673;DHT22;41723;49.326;8.430;2023-01-15T04:44:10;9.00;99.90
43673;DHT22;41723;49.326;8.430;2023-01-15T04:49:01;9.00;99.90
43673;DHT22;41723;49.326;8.430;2023-01-15T04:51:27;9.10;99.90
43673;DHT22;41723;49.326;8.430;2023-01-15T04:53:52;9.00;99.90
43673;DHT22;41723;49.326;8.430;2023-01-15T04:56:18;9.00;99.90
43673;DHT22;41723;49.326;8.430;2023-01-15T04:58:50;9.00;99.90
43673;DHT22;41723;49.326;8.430;2023-01-15T05:01:16;9.00;99.90
43673;DHT22;41723;49.326;8.430;2023-01-15T05:03:42;8.90;99.90
43673;DHT22;41723;49.326;8.430;2023-01-15T05:06:08;8.80;99.90
43673;DHT22;41723;49.326;8.430;2023-01-15T05:08:34;8.70;99.90
43673;DHT22;41723;49.326;8.430;2023-01-15T05:11:00;8.60;99.90
43673;DHT22;41723;49.326;8.430;2023-01-15T05:13:25;8.60;99.90
43673;DHT22;41723;49.326;8.430;2023-01-15T05:15:51;8.70;99.90
43673;DHT22;41723;49.326;8.430;2023-01-15T05:18:17;8.80;99.90
43673;DHT22;41723;49.326;8.430;2023-01-15T05:20:42;8.80;99.90
43673;DHT22;41723;49.326;8.430;2023-01-15T05:23:08;8.90;99.90
43673;DHT22;41723;49.326;8.430;2023-01-15T05:25:37;9.00;99.90
43673;DHT22;41723;49.326;8.430;2023-01-15T05:28:02;8.80;99.90
43673;DHT22;41723;49.326;8.430;2023-01-15T05:30:28;8.80;99.90
43673;DHT22;41723;49.326;8.430;2023-01-15T05:32:54;8.80;99.90
43673;DHT22;41723;49.326;8.430;2023-01-15T05:35:20;8.80;99.90
43673;DHT22;41723;49.326;8.430;2023-01-15T05:37:45;8.80;99.90
43673;DHT22;41723;49.326;8.430;2023-01-15T05:40:11;8.80;99.90
43673;DHT22;41723;49.326;8.430;2023-01-15T05:42:37;8.80;99.90
43673;DHT22;41723;49.326;8.430;2023-01-15T05:45:02;8.80;99.90
43673;DHT22;41723;49.326;8.430;2023-01-15T05:47:28;8.80;99.90
43673;DHT22;41723;49.326;8.430;2023-01-15T05:49:54;8.70;99.90
43673;DHT22;41723;49.326;8.430;2023-01-15T05:52:19;8.70;99.90
43673;DHT22;41723;49.326;8.430;2023-01-15T05:54:45;8.70;99.90
43673;DHT22;41723;49.326;8.430;2023-01-15T05:57:11;8.70;99.90
43673;DHT22;41723;49.326;8.430;2023-01-15T05:59:37;8.70;99.90
43673;DHT22;41723;49.326;8.430;2023-01-15T06:02:03;8.60;99.90
43673;DHT22;41723;49.326;8.430;2023-01-15T06:04:29;8.70;99.90
43673;DHT22;41723;49.326;8.430;2023-01-15T06:06:55;8.60;99.90
43673;DHT22;41723;49.326;8.430;2023-01-15T06:09:21;8.60;99.90
43673;DHT22;41723;49.326;8.430;2023-01-15T06:11:47;8.70;99.90
43673;DHT22;41723;49.326;8.430;2023-01-15T06:14:13;8.70;99.90
43673;DHT22;41723;49.326;8.430;2023-01-15T06:16:39;8.70;99.90
43673;DHT22;41723;49.326;8.430;2023-01-15T06:19:05;8.60;99.90
43673;DHT22;41723;49.326;8.430;2023-01-15T06:21:31;8.60;99.90
43673;DHT22;41723;49.326;8.430;2023-01-15T06:23:57;8.50;99.90
43673;DHT22;41723;49.326;8.430;2023-01-15T06:26:23;8.50;99.90
43673;DHT22;41723;49.326;8.430;2023-01-15T06:28:49;8.40;99.90
43673;DHT22;41723;49.326;8.430;2023-01-15T06:31:15;8.50;99.90
43673;DHT22;41723;49.326;8.430;2023-01-15T06:33:41;8.50;99.90
43673;DHT22;41723;49.326;8.430;2023-01-15T06:36:08;8.50;99.90
43673;DHT22;41723;49.326;8.430;2023-01-15T06:38:35;8.50;99.90
43673;DHT22;41723;49.326;8.430;2023-01-15T06:41:01;8.50;99.90
43673;DHT22;41723;49.326;8.430;2023-01-15T06:43:27;8.50;99.90
43673;DHT22;41723;49.326;8.430;2023-01-15T06:46:12;8.50;99.90
43673;DHT22;41723;49.326;8.430;2023-01-15T06:48:57;8.60;99.90
43673;DHT22;41723;49.326;8.430;2023-01-15T06:51:22;8.70;99.90
43673;DHT22;41723;49.326;8.430;2023-01-15T06:53:49;8.50;99.90
43673;DHT22;41723;49.326;8.430;2023-01-15T06:56:14;8.60;99.90
43673;DHT22;41723;49.326;8.430;2023-01-15T06:58:40;8.60;99.90
43673;DHT22;41723;49.326;8.430;2023-01-15T07:01:09;8.60;99.90
43673;DHT22;41723;49.326;8.430;2023-01-15T07:03:35;8.50;99.90
43673;DHT22;41723;49.326;8.430;2023-01-15T07:06:07;8.50;99.90
43673;DHT22;41723;49.326;8.430;2023-01-15T07:08:33;8.50;99.90
43673;DHT22;41723;49.326;8.430;2023-01-15T07:11:03;8.40;99.90
43673;DHT22;41723;49.326;8.430;2023-01-15T07:13:28;8.30;99.90
43673;DHT22;41723;49.326;8.430;2023-01-15T07:15:56;8.20;99.90
43673;DHT22;41723;49.326;8.430;2023-01-15T07:18:22;8.20;99.90
43673;DHT22;41723;49.326;8.430;2023-01-15T07:20:47;8.10;99.90
43673;DHT22;41723;49.326;8.430;2023-01-15T07:23:13;8.10;99.90
43673;DHT22;41723;49.326;8.430;2023-01-15T07:25:38;8.10;99.90
43673;DHT22;41723;49.326;8.430;2023-01-15T07:28:04;8.20;99.90
43673;DHT22;41723;49.326;8.430;2023-01-15T07:30:29;8.00;99.90
43673;DHT22;41723;49.326;8.430;2023-01-15T07:32:55;8.00;99.90
43673;DHT22;41723;49.326;8.430;2023-01-15T07:35:21;8.10;99.90
43673;DHT22;41723;49.326;8.430;2023-01-15T07:37:50;7.90;99.90
43673;DHT22;41723;49.326;8.430;2023-01-15T07:40:16;7.90;99.90
43673;DHT22;41723;49.326;8.430;2023-01-15T07:42:42;7.90;99.90
43673;DHT22;41723;49.326;8.430;2023-01-15T07:45:41;7.80;99.90
43673;DHT22;41723;49.326;8.430;2023-01-15T07:48:30;7.80;99.90
43673;DHT22;41723;49.326;8.430;2023-01-15T07:51:14;7.70;99.90
43673;DHT22;41723;49.326;8.430;2023-01-15T07:53:39;7.70;99.90
43673;DHT22;41723;49.326;8.430;2023-01-15T07:56:05;7.60;99.90
43673;DHT22;41723;49.326;8.430;2023-01-15T07:58:31;7.60;99.90
43673;DHT22;41723;49.326;8.430;2023-01-15T08:00:57;7.50;99.90
43673;DHT22;41723;49.326;8.430;2023-01-15T08:03:22;7.60;99.90
43673;DHT22;41723;49.326;8.430;2023-01-15T08:05:48;7.50;99.90
43673;DHT22;41723;49.326;8.430;2023-01-15T08:08:14;7.40;99.90
43673;DHT22;41723;49.326;8.430;2023-01-15T08:10:40;7.50;99.90
43673;DHT22;41723;49.326;8.430;2023-01-15T08:13:25;7.40;99.90
43673;DHT22;41723;49.326;8.430;2023-01-15T08:16:10;7.40;99.90
43673;DHT22;41723;49.326;8.430;2023-01-15T08:18:36;7.40;99.90
43673;DHT22;41723;49.326;8.430;2023-01-15T08:21:01;7.50;99.90
43673;DHT22;41723;49.326;8.430;2023-01-15T08:23:27;7.50;99.90
43673;DHT22;41723;49.326;8.430;2023-01-15T08:25:52;7.60;99.90
43673;DHT22;41723;49.326;8.430;2023-01-15T08:28:18;7.50;99.90
43673;DHT22;41723;49.326;8.430;2023-01-15T08:30:43;7.50;99.90
43673;DHT22;41723;49.326;8.430;2023-01-15T08:33:09;7.60;99.90
43673;DHT22;41723;49.326;8.430;2023-01-15T08:35:35;7.50;99.90
43673;DHT22;41723;49.326;8.430;2023-01-15T08:38:06;7.50;99.90
43673;DHT22;41723;49.326;8.430;2023-01-15T08:40:32;7.50;99.90
43673;DHT22;41723;49.326;8.430;2023-01-15T08:42:59;7.40;99.90
43673;DHT22;41723;49.326;8.430;2023-01-15T08:45:25;7.30;99.90
43673;DHT22;41723;49.326;8.430;2023-01-15T08:47:53;7.40;99.90
43673;DHT22;41723;49.326;8.430;2023-01-15T08:50:18;7.30;99.90
43673;DHT22;41723;49.326;8.430;2023-01-15T08:52:44;7.30;99.90
43673;DHT22;41723;49.326;8.430;2023-01-15T08:55:10;7.30;99.90
43673;DHT22;41723;49.326;8.430;2023-01-15T08:57:37;7.30;99.90
43673;DHT22;41723;49.326;8.430;2023-01-15T09:00:03;7.30;99.90
43673;DHT22;41723;49.326;8.430;2023-01-15T09:02:29;7.30;99.90
43673;DHT22;41723;49.326;8.430;2023-01-15T09:04:54;7.20;99.90
43673;DHT22;41723;49.326;8.430;2023-01-15T09:07:20;7.20;99.90
43673;DHT22;41723;49.326;8.430;2023-01-15T09:09:46;7.20;99.90
43673;DHT22;41723;49.326;8.430;2023-01-15T09:12:11;7.30;99.90
43673;DHT22;41723;49.326;8.430;2023-01-15T09:14:38;7.30;99.90
43673;DHT22;41723;49.326;8.430;2023-01-15T09:17:03;7.30;99.90
43673;DHT22;41723;49.326;8.430;2023-01-15T09:19:29;7.20;99.90
43673;DHT22;41723;49.326;8.430;2023-01-15T09:21:55;7.20;99.90
43673;DHT22;41723;49.326;8.430;2023-01-15T09:24:20;7.20;99.90
43673;DHT22;41723;49.326;8.430;2023-01-15T09:26:46;7.20;99.90
43673;DHT22;41723;49.326;8.430;2023-01-15T09:29:12;7.20;99.90
43673;DHT22;41723;49.326;8.430;2023-01-15T09:31:37;7.20;99.90
43673;DHT22;41723;49.326;8.430;2023-01-15T09:34:03;7.20;99.90
43673;DHT22;41723;49.326;8.430;2023-01-15T09:36:30;7.20;99.90
43673;DHT22;41723;49.326;8.430;2023-01-15T09:38:56;7.20;99.90
43673;DHT22;41723;49.326;8.430;2023-01-15T09:41:22;7.20;99.90
43673;DHT22;41723;49.326;8.430;2023-01-15T09:44:10;7.30;99.90
43673;DHT22;41723;49.326;8.430;2023-01-15T09:46:44;7.20;99.90
43673;DHT22;41723;49.326;8.430;2023-01-15T09:56:53;7.10;99.90
43673;DHT22;41723;49.326;8.430;2023-01-15T09:59:24;7.10;99.90
43673;DHT22;41723;49.326;8.430;2023-01-15T10:01:50;7.10;99.90
43673;DHT22;41723;49.326;8.430;2023-01-15T10:04:26;7.10;99.90
43673;DHT22;41723;49.326;8.430;2023-01-15T10:06:58;7.10;99.90
43673;DHT22;41723;49.326;8.430;2023-01-15T10:09:30;7.10;99.90
43673;DHT22;41723;49.326;8.430;2023-01-15T10:12:05;7.10;99.90
43673;DHT22;41723;49.326;8.430;2023-01-15T10:15:34;7.10;99.90
43673;DHT22;41723;49.326;8.430;2023-01-15T10:17:49;7.00;99.90
43673;DHT22;41723;49.326;8.430;2023-01-15T10:23:46;7.00;99.90
43673;DHT22;41723;49.326;8.430;2023-01-15T10:25:47;7.00;99.90
43673;DHT22;41723;49.326;8.430;2023-01-15T10:28:24;7.00;99.90
43673;DHT22;41723;49.326;8.430;2023-01-15T10:30:52;7.00;99.90
43673;DHT22;41723;49.326;8.430;2023-01-15T10:33:38;7.10;99.90
43673;DHT22;41723;49.326;8.430;2023-01-15T10:36:14;7.20;99.90
43673;DHT22;41723;49.326;8.430;2023-01-15T10:38:49;7.30;99.90
43673;DHT22;41723;49.326;8.430;2023-01-15T10:41:34;7.20;99.90
43673;DHT22;41723;49.326;8.430;2023-01-15T10:44:47;7.10;99.90
43673;DHT22;41723;49.326;8.430;2023-01-15T10:46:53;7.10;99.90
43673;DHT22;41723;49.326;8.430;2023-01-15T10:49:21;7.10;99.90
43673;DHT22;41723;49.326;8.430;2023-01-15T10:51:49;7.10;99.90
43673;DHT22;41723;49.326;8.430;2023-01-15T10:54:19;7.10;99.90
43673;DHT22;41723;49.326;8.430;2023-01-15T11:04:41;7.10;99.90
43673;DHT22;41723;49.326;8.430;2023-01-15T11:07:08;7.10;99.90
43673;DHT22;41723;49.326;8.430;2023-01-15T11:09:34;7.10;99.90
43673;DHT22;41723;49.326;8.430;2023-01-15T11:12:04;7.10;99.90
43673;DHT22;41723;49.326;8.430;2023-01-15T11:14:43;7.10;99.90
43673;DHT22;41723;49.326;8.430;2023-01-15T11:17:34;7.00;99.90
43673;DHT22;41723;49.326;8.430;2023-01-15T11:22:51;6.90;99.90
43673;DHT22;41723;49.326;8.430;2023-01-15T11:25:24;7.00;99.90
43673;DHT22;41723;49.326;8.430;2023-01-15T11:27:50;7.00;99.90
43673;DHT22;41723;49.326;8.430;2023-01-15T11:30:29;7.00;99.90
43673;DHT22;41723;49.326;8.430;2023-01-15T11:32:57;6.90;99.90
43673;DHT22;41723;49.326;8.430;2023-01-15T11:35:23;6.80;99.90
43673;DHT22;41723;49.326;8.430;2023-01-15T11:37:49;6.80;99.90
43673;DHT22;41723;49.326;8.430;2023-01-15T11:40:18;6.90;99.90
43673;DHT22;41723;49.326;8.430;2023-01-15T11:42:45;6.80;99.90
43673;DHT22;41723;49.326;8.430;2023-01-15T11:45:29;6.80;99.90
43673;DHT22;41723;49.326;8.430;2023-01-15T11:48:17;6.80;99.90
43673;DHT22;41723;49.326;8.430;2023-01-15T11:53:28;7.00;99.90
43673;DHT22;41723;49.326;8.430;2023-01-15T11:55:58;6.90;99.90
43673;DHT22;41723;49.326;8.430;2023-01-15T11:58:49;6.70;99.90
43673;DHT22;41723;49.326;8.430;2023-01-15T12:01:13;6.70;99.90
43673;DHT22;41723;49.326;8.430;2023-01-15T12:03:41;6.80;99.90
43673;DHT22;41723;49.326;8.430;2023-01-15T12:06:08;6.70;99.90
43673;DHT22;41723;49.326;8.430;2023-01-15T12:08:46;6.70;99.90
43673;DHT22;41723;49.326;8.430;2023-01-15T12:11:30;6.70;99.90
43673;DHT22;41723;49.326;8.430;2023-01-15T12:19:11;6.70;99.90
43673;DHT22;41723;49.326;8.430;2023-01-15T12:24:31;6.70;99.90
43673;DHT22;41723;49.326;8.430;2023-01-15T12:29:27;6.80;99.90
43673;DHT22;41723;49.326;8.430;2023-01-15T12:31:55;6.90;99.90
43673;DHT22;41723;49.326;8.430;2023-01-15T12:36:58;6.90;99.90
43673;DHT22;41723;49.326;8.430;2023-01-15T12:39:29;6.90;99.90
43673;DHT22;41723;49.326;8.430;2023-01-15T12:42:03;7.00;99.90
43673;DHT22;41723;49.326;8.430;2023-01-15T12:44:51;7.30;99.90
43673;DHT22;41723;49.326;8.430;2023-01-15T12:48:02;7.50;99.90
43673;DHT22;41723;49.326;8.430;2023-01-15T12:55:38;8.00;99.90
43673;DHT22;41723;49.326;8.430;2023-01-15T12:58:07;8.00;99.90
43673;DHT22;41723;49.326;8.430;2023-01-15T13:00:42;8.10;99.90
43673;DHT22;41723;49.326;8.430;2023-01-15T13:05:46;8.10;99.90
43673;DHT22;41723;49.326;8.430;2023-01-15T13:10:43;8.10;99.90
43673;DHT22;41723;49.326;8.430;2023-01-15T13:13:18;8.00;99.90
43673;DHT22;41723;49.326;8.430;2023-01-15T13:16:07;7.90;99.90
43673;DHT22;41723;49.326;8.430;2023-01-15T13:18:45;7.90;99.90
43673;DHT22;41723;49.326;8.430;2023-01-15T13:21:16;7.90;99.90
43673;DHT22;41723;49.326;8.430;2023-01-15T13:31:31;8.20;99.90
43673;DHT22;41723;49.326;8.430;2023-01-15T13:34:06;8.10;99.90
43673;DHT22;41723;49.326;8.430;2023-01-15T13:36:38;8.10;99.90
43673;DHT22;41723;49.326;8.430;2023-01-15T13:39:06;8.00;99.90
43673;DHT22;41723;49.326;8.430;2023-01-15T13:41:37;8.10;99.90
43673;DHT22;41723;49.326;8.430;2023-01-15T13:44:25;8.00;99.90
43673;DHT22;41723;49.326;8.430;2023-01-15T13:47:07;8.10;99.90
43673;DHT22;41723;49.326;8.430;2023-01-15T13:49:34;8.20;99.90
43673;DHT22;41723;49.326;8.430;2023-01-15T13:52:00;8.00;99.90
43673;DHT22;41723;49.326;8.430;2023-01-15T13:54:30;8.00;99.90
43673;DHT22;41723;49.326;8.430;2023-01-15T13:57:18;7.80;99.90
43673;DHT22;41723;49.326;8.430;2023-01-15T13:59:46;7.80;99.90
43673;DHT22;41723;49.326;8.430;2023-01-15T14:02:20;7.70;99.90
43673;DHT22;41723;49.326;8.430;2023-01-15T14:04:47;7.60;99.90
43673;DHT22;41723;49.326;8.430;2023-01-15T14:07:46;7.70;99.90
43673;DHT22;41723;49.326;8.430;2023-01-15T14:18:09;7.80;99.90
43673;DHT22;41723;49.326;8.430;2023-01-15T14:23:33;7.70;99.90
43673;DHT22;41723;49.326;8.430;2023-01-15T14:36:28;7.70;99.90
43673;DHT22;41723;49.326;8.430;2023-01-15T14:38:56;7.70;99.90
43673;DHT22;41723;49.326;8.430;2023-01-15T14:41:40;7.70;99.90
43673;DHT22;41723;49.326;8.430;2023-01-15T14:44:29;7.60;99.90
43673;DHT22;41723;49.326;8.430;2023-01-15T14:46:58;7.50;99.90
43673;DHT22;41723;49.326;8.430;2023-01-15T14:49:30;7.50;99.90
43673;DHT22;41723;49.326;8.430;2023-01-15T14:51:56;7.50;99.90
43673;DHT22;41723;49.326;8.430;2023-01-15T14:54:22;7.40;99.90
43673;DHT22;41723;49.326;8.430;2023-01-15T14:56:53;7.40;99.90
43673;DHT22;41723;49.326;8.430;2023-01-15T14:59:25;7.40;99.90
43673;DHT22;41723;49.326;8.430;2023-01-15T15:02:04;7.40;99.90
43673;DHT22;41723;49.326;8.430;2023-01-15T15:04:32;7.40;99.90
43673;DHT22;41723;49.326;8.430;2023-01-15T15:07:21;7.30;99.90
43673;DHT22;41723;49.326;8.430;2023-01-15T15:22:42;7.30;99.90
43673;DHT22;41723;49.326;8.430;2023-01-15T15:25:09;7.30;99.90
43673;DHT22;41723;49.326;8.430;2023-01-15T15:27:36;7.30;99.90
43673;DHT22;41723;49.326;8.430;2023-01-15T15:30:03;7.30;99.90
43673;DHT22;41723;49.326;8.430;2023-01-15T15:32:28;7.30;99.90
43673;DHT22;41723;49.326;8.430;2023-01-15T15:34:54;7.30;99.90
43673;DHT22;41723;49.326;8.430;2023-01-15T15:37:21;7.30;99.90
43673;DHT22;41723;49.326;8.430;2023-01-15T15:40:09;7.30;99.90
43673;DHT22;41723;49.326;8.430;2023-01-15T15:42:40;7.30;99.90
43673;DHT22;41723;49.326;8.430;2023-01-15T15:45:28;7.30;99.90
43673;DHT22;41723;49.326;8.430;2023-01-15T15:48:17;7.30;99.90
43673;DHT22;41723;49.326;8.430;2023-01-15T15:51:01;7.30;99.90
43673;DHT22;41723;49.326;8.430;2023-01-15T15:53:27;7.30;99.90
43673;DHT22;41723;49.326;8.430;2023-01-15T15:55:53;7.30;99.90
43673;DHT22;41723;49.326;8.430;2023-01-15T15:58:25;7.30;99.90
43673;DHT22;41723;49.326;8.430;2023-01-15T16:00:52;7.40;99.90
43673;DHT22;41723;49.326;8.430;2023-01-15T16:03:19;7.30;99.90
43673;DHT22;41723;49.326;8.430;2023-01-15T16:08:20;7.30;99.90
43673;DHT22;41723;49.326;8.430;2023-01-15T16:10:46;7.30;99.90
43673;DHT22;41723;49.326;8.430;2023-01-15T16:13:20;7.30;99.90
43673;DHT22;41723;49.326;8.430;2023-01-15T16:15:47;7.30;99.90
43673;DHT22;41723;49.326;8.430;2023-01-15T16:18:17;7.30;99.90
43673;DHT22;41723;49.326;8.430;2023-01-15T16:20:44;7.30;99.90
43673;DHT22;41723;49.326;8.430;2023-01-15T16:26:19;7.20;99.90
43673;DHT22;41723;49.326;8.430;2023-01-15T16:28:56;7.20;99.90
43673;DHT22;41723;49.326;8.430;2023-01-15T16:31:23;7.10;99.90
43673;DHT22;41723;49.326;8.430;2023-01-15T16:33:52;7.20;99.90
43673;DHT22;41723;49.326;8.430;2023-01-15T16:36:19;7.20;99.90
43673;DHT22;41723;49.326;8.430;2023-01-15T16:38:46;7.20;99.90
43673;DHT22;41723;49.326;8.430;2023-01-15T16:41:20;7.20;99.90
43673;DHT22;41723;49.326;8.430;2023-01-15T16:43:49;7.10;99.90
43673;DHT22;41723;49.326;8.430;2023-01-15T16:46:16;7.10;99.90
43673;DHT22;41723;49.326;8.430;2023-01-15T16:48:44;7.20;99.90
43673;DHT22;41723;49.326;8.430;2023-01-15T16:56:52;7.20;99.90
43673;DHT22;41723;49.326;8.430;2023-01-15T17:01:54;7.20;99.90
43673;DHT22;41723;49.326;8.430;2023-01-15T17:04:32;7.20;99.90
43673;DHT22;41723;49.326;8.430;2023-01-15T17:07:05;7.20;99.90
43673;DHT22;41723;49.326;8.430;2023-01-15T17:09:32;7.20;99.90
43673;DHT22;41723;49.326;8.430;2023-01-15T17:11:59;7.20;99.90
43673;DHT22;41723;49.326;8.430;2023-01-15T17:14:26;7.20;99.90
43673;DHT22;41723;49.326;8.430;2023-01-15T17:19:38;7.20;99.90
43673;DHT22;41723;49.326;8.430;2023-01-15T17:22:04;7.10;99.90
43673;DHT22;41723;49.326;8.430;2023-01-15T17:24:30;7.10;99.90
43673;DHT22;41723;49.326;8.430;2023-01-15T17:26:56;7.10;99.90
43673;DHT22;41723;49.326;8.430;2023-01-15T17:29:21;7.10;99.90
43673;DHT22;41723;49.326;8.430;2023-01-15T17:31:47;7.00;99.90
43673;DHT22;41723;49.326;8.430;2023-01-15T17:34:12;7.00;99.90
43673;DHT22;41723;49.326;8.430;2023-01-15T17:36:38;7.00;99.90
43673;DHT22;41723;49.326;8.430;2023-01-15T17:39:04;7.00;99.90
43673;DHT22;41723;49.326;8.430;2023-01-15T17:41:29;7.00;99.90
43673;DHT22;41723;49.326;8.430;2023-01-15T17:43:55;7.00;99.90
43673;DHT22;41723;49.326;8.430;2023-01-15T17:46:21;6.90;99.90
43673;DHT22;41723;49.326;8.430;2023-01-15T17:48:46;7.00;99.90
43673;DHT22;41723;49.326;8.430;2023-01-15T17:51:13;7.00;99.90
43673;DHT22;41723;49.326;8.430;2023-01-15T17:53:38;6.90;99.90
43673;DHT22;41723;49.326;8.430;2023-01-15T17:56:04;7.00;99.90
43673;DHT22;41723;49.326;8.430;2023-01-15T17:58:49;7.00;99.90
43673;DHT22;41723;49.326;8.430;2023-01-15T18:01:36;7.00;99.90
43673;DHT22;41723;49.326;8.430;2023-01-15T18:07:09;6.90;99.90
43673;DHT22;41723;49.326;8.430;2023-01-15T18:09:35;6.90;99.90
43673;DHT22;41723;49.326;8.430;2023-01-15T18:12:01;6.90;99.90
43673;DHT22;41723;49.326;8.430;2023-01-15T18:14:27;6.80;99.90